createdAt,value
2022-08-17T00:00:43.625Z,38.42
2022-08-17T00:04:05.033Z,33.25
2022-08-17T00:06:37.279Z,34.85
2022-08-17T00:09:06.077Z,39.10
2022-08-17T00:11:39.711Z,38.40
2022-08-17T00:14:33.412Z,34.65
2022-08-17T00:17:01.541Z,38.53
2022-08-17T00:19:29.402Z,36.97
2022-08-17T00:22:32.473Z,39.05
2022-08-17T00:24:48.932Z,36.28
2022-08-17T00:27:17.005Z,32.95
2022-08-17T00:29:46.120Z,36.72
2022-08-17T00:33:14.105Z,36.05
2022-08-17T00:35:08.562Z,34.63
2022-08-17T00:40:05.368Z,36.97
2022-08-17T00:42:33.666Z,35.53
2022-08-17T00:45:01.990Z,36.80
2022-08-17T00:47:29.848Z,36.28
2022-08-17T00:49:58.698Z,33.83
2022-08-17T00:52:35.222Z,38.47
2022-08-17T00:55:08.875Z,34.25
2022-08-17T00:57:44.242Z,33.85
2022-08-17T01:00:34.185Z,33.47
2022-08-17T01:03:27.591Z,37.38
2022-08-17T01:05:58.916Z,39.92
2022-08-17T01:08:29.886Z,36.97
2022-08-17T01:11:02.427Z,33.70
2022-08-17T01:13:42.977Z,35.97
2022-08-17T01:16:37.587Z,37.38
2022-08-17T01:19:11.742Z,39.05
2022-08-17T01:22:10.295Z,34.47
2022-08-17T01:24:48.699Z,36.58
2022-08-17T01:27:43.683Z,35.67
2022-08-17T01:30:58.639Z,38.38
2022-08-17T01:33:04.619Z,36.58
2022-08-17T01:35:57.514Z,39.33
2022-08-17T01:38:31.698Z,37.25
2022-08-17T01:41:08.257Z,35.55
2022-08-17T01:43:59.281Z,38.00
2022-08-17T01:46:33.690Z,35.65
2022-08-17T01:49:28.276Z,38.60
2022-08-17T01:52:24.199Z,37.58
2022-08-17T01:54:53.243Z,40.50
2022-08-17T01:57:22.442Z,38.47
2022-08-17T01:59:50.336Z,37.88
2022-08-17T02:02:30.283Z,40.10
2022-08-17T02:04:59.394Z,39.53
2022-08-17T02:07:27.490Z,37.22
2022-08-17T02:09:56.712Z,38.15
2022-08-17T02:12:39.328Z,39.38
2022-08-17T02:15:12.707Z,35.35
2022-08-17T02:18:06.386Z,37.92
2022-08-17T02:20:41.765Z,42.40
2022-08-17T02:23:41.482Z,37.63
2022-08-17T02:26:11.217Z,38.50
2022-08-17T02:28:53.910Z,41.53
2022-08-17T02:31:22.602Z,38.50
2022-08-17T02:34:15.452Z,45.97
2022-08-17T02:36:44.737Z,39.85
2022-08-17T02:39:16.845Z,40.50
2022-08-17T02:41:45.436Z,37.92
2022-08-17T02:44:13.196Z,42.97
2022-08-17T02:47:01.538Z,38.88
2022-08-17T02:49:29.345Z,38.85
2022-08-17T02:51:58.733Z,35.80
2022-08-17T02:54:40.374Z,36.72
2022-08-17T02:57:14.056Z,35.67
2022-08-17T02:59:46.710Z,37.13
2022-08-17T03:02:16.420Z,39.78
2022-08-17T03:04:44.206Z,40.63
2022-08-17T03:07:13.434Z,37.58
2022-08-17T03:09:41.109Z,38.90
2022-08-17T03:12:13.115Z,37.63
2022-08-17T03:14:43.001Z,35.95
2022-08-17T03:17:16.932Z,37.10
2022-08-17T03:19:45.732Z,34.88
2022-08-17T03:22:37.415Z,36.30
2022-08-17T03:25:02.155Z,32.70
2022-08-17T03:27:30.900Z,35.25
2022-08-17T03:29:59.733Z,35.47
2022-08-17T03:32:27.618Z,38.35
2022-08-17T03:35:01.769Z,33.25
2022-08-17T03:37:29.671Z,35.65
2022-08-17T03:39:57.605Z,36.45
2022-08-17T03:42:32.015Z,34.45
2022-08-17T03:45:03.836Z,31.15
2022-08-17T03:50:19.318Z,34.90
2022-08-17T03:53:08.513Z,36.38
2022-08-17T03:55:55.777Z,32.90
2022-08-17T03:58:24.042Z,36.08
2022-08-17T04:00:52.274Z,35.65
2022-08-17T04:03:20.135Z,40.67
2022-08-17T04:05:47.838Z,31.92
2022-08-17T04:08:15.663Z,34.08
2022-08-17T04:10:45.123Z,30.60
2022-08-17T04:13:14.024Z,33.92
2022-08-17T04:15:42.157Z,35.58
2022-08-17T04:18:10.923Z,33.08
2022-08-17T04:20:38.993Z,34.97
2022-08-17T04:23:11.670Z,38.30
2022-08-17T04:25:46.806Z,40.78
2022-08-17T04:28:16.290Z,41.92
2022-08-17T04:30:45.384Z,36.83
2022-08-17T04:33:25.588Z,40.72
2022-08-17T04:36:05.604Z,37.17
2022-08-17T04:38:38.691Z,36.53
2022-08-17T04:41:26.551Z,31.15
2022-08-17T04:43:58.521Z,31.85
2022-08-17T04:46:29.785Z,38.83
2022-08-17T04:48:58.167Z,44.17
2022-08-17T04:51:34.984Z,29.83
2022-08-17T04:54:13.284Z,35.80
2022-08-17T04:56:41.253Z,27.10
2022-08-17T04:59:34.209Z,29.60
2022-08-17T05:02:01.980Z,31.02
2022-08-17T05:04:34.432Z,31.63
2022-08-17T05:07:04.792Z,28.77
2022-08-17T05:09:32.618Z,30.00
2022-08-17T05:12:02.379Z,30.92
2022-08-17T05:14:32.989Z,32.55
2022-08-17T05:17:07.177Z,30.38
2022-08-17T05:19:39.501Z,27.80
2022-08-17T05:22:07.466Z,27.33
2022-08-17T05:24:42.728Z,24.73
2022-08-17T05:27:23.507Z,28.35
2022-08-17T05:29:51.391Z,30.10
2022-08-17T05:32:39.111Z,28.23
2022-08-17T05:35:08.545Z,27.77
2022-08-17T05:37:36.327Z,28.20
2022-08-17T05:40:05.216Z,32.97
2022-08-17T05:42:37.635Z,26.85
2022-08-17T05:45:08.465Z,26.48
2022-08-17T05:47:40.136Z,25.73
2022-08-17T05:50:09.965Z,26.85
2022-08-17T05:52:51.017Z,27.13
2022-08-17T05:55:33.467Z,27.67
2022-08-17T05:58:11.120Z,31.63
2022-08-17T06:00:53.778Z,27.75
2022-08-17T06:03:46.310Z,24.42
2022-08-17T06:06:48.802Z,31.08
2022-08-17T06:09:38.808Z,32.78
2022-08-17T06:12:33.021Z,26.87
2022-08-17T06:15:26.539Z,23.13
2022-08-17T06:18:23.195Z,26.05
2022-08-17T06:20:56.817Z,26.77
2022-08-17T06:23:58.319Z,22.70
2022-08-17T06:30:27.466Z,24.80
2022-08-17T06:33:06.275Z,28.60
2022-08-17T06:35:41.297Z,24.50
2022-08-17T06:38:38.555Z,23.05
2022-08-17T06:41:46.233Z,25.33
2022-08-17T06:44:43.265Z,26.90
2022-08-17T06:47:38.820Z,23.15
2022-08-17T06:50:31.729Z,22.08
2022-08-17T06:53:26.967Z,27.30
2022-08-17T06:56:09.073Z,23.92
2022-08-17T06:58:40.669Z,23.63
2022-08-17T07:01:16.519Z,24.90
2022-08-17T07:04:19.473Z,21.52
2022-08-17T07:07:31.350Z,23.83
2022-08-17T07:10:01.734Z,20.77
2022-08-17T07:12:37.661Z,28.58
2022-08-17T07:15:15.024Z,20.35
2022-08-17T07:17:47.474Z,21.73
2022-08-17T07:20:43.126Z,23.73
2022-08-17T07:23:40.397Z,25.02
2022-08-17T07:26:13.507Z,21.83
2022-08-17T07:28:43.998Z,19.77
2022-08-17T07:31:14.583Z,21.60
2022-08-17T07:34:07.039Z,22.42
2022-08-17T07:36:35.242Z,23.85
2022-08-17T07:39:04.374Z,23.75
2022-08-17T07:41:57.349Z,19.83
2022-08-17T07:44:27.937Z,18.70
2022-08-17T07:47:15.636Z,21.45
2022-08-17T07:50:28.175Z,17.67
2022-08-17T07:53:17.132Z,20.27
2022-08-17T07:55:45.655Z,22.73
2022-08-17T07:58:23.774Z,18.70
2022-08-17T08:01:10.312Z,15.95
2022-08-17T08:03:43.113Z,19.30
2022-08-17T08:06:25.265Z,18.77
2022-08-17T08:08:56.395Z,21.63
2022-08-17T08:11:36.099Z,18.35
2022-08-17T08:14:29.745Z,21.25
2022-08-17T08:17:06.753Z,18.73
2022-08-17T08:19:37.498Z,18.33
2022-08-17T08:22:16.121Z,17.25
2022-08-17T08:25:23.749Z,17.92
2022-08-17T08:28:20.251Z,19.30
2022-08-17T08:31:14.165Z,17.30
2022-08-17T08:33:56.492Z,16.80
2022-08-17T08:36:57.092Z,21.70
2022-08-17T08:40:11.259Z,15.57
2022-08-17T08:43:22.992Z,16.42
2022-08-17T08:45:52.482Z,17.00
2022-08-17T08:51:31.530Z,19.00
2022-08-17T08:54:15.521Z,17.25
2022-08-17T08:57:22.870Z,17.77
2022-08-17T09:00:15.695Z,18.95
2022-08-17T09:03:05.542Z,15.40
2022-08-17T09:06:04.063Z,24.08
2022-08-17T09:08:54.066Z,16.45
2022-08-17T09:11:31.448Z,16.03
2022-08-17T09:14:07.868Z,17.77
2022-08-17T09:17:19.495Z,16.75
2022-08-17T09:20:27.873Z,15.35
2022-08-17T09:23:24.249Z,19.48
2022-08-17T09:26:00.985Z,18.67
2022-08-17T09:28:37.110Z,18.45
2022-08-17T09:31:48.721Z,16.13
2022-08-17T09:34:26.965Z,17.15
2022-08-17T09:37:30.391Z,21.88
2022-08-17T09:40:09.927Z,20.65
2022-08-17T09:42:48.981Z,18.83
2022-08-17T09:45:37.235Z,22.52
2022-08-17T09:48:51.793Z,15.32
2022-08-17T09:51:23.132Z,18.35
2022-08-17T09:53:52.457Z,16.88
2022-08-17T09:57:28.129Z,23.17
2022-08-17T10:03:04.249Z,15.68
2022-08-17T10:05:46.769Z,17.52
2022-08-17T10:08:40.318Z,16.75
2022-08-17T10:11:46.094Z,14.43
2022-08-17T10:14:36.758Z,17.80
2022-08-17T10:17:25.110Z,21.03
2022-08-17T10:20:34.409Z,18.50
2022-08-17T10:23:24.578Z,17.05
2022-08-17T10:26:16.101Z,15.02
2022-08-17T10:28:44.548Z,16.70
2022-08-17T10:31:34.930Z,17.20
2022-08-17T10:34:29.051Z,17.60
2022-08-17T10:37:22.355Z,15.25
2022-08-17T10:40:14.980Z,16.52
2022-08-17T10:42:56.722Z,18.23
2022-08-17T10:45:37.001Z,14.93
2022-08-17T10:48:07.947Z,14.68
2022-08-17T10:51:02.516Z,16.63
2022-08-17T10:53:33.596Z,14.27
2022-08-17T10:56:14.736Z,19.10
2022-08-17T10:58:56.343Z,23.27
2022-08-17T11:01:36.535Z,25.38
2022-08-17T11:04:44.758Z,23.90
2022-08-17T11:07:25.891Z,16.85
2022-08-17T11:09:53.820Z,19.77
2022-08-17T11:12:38.946Z,22.58
2022-08-17T11:15:32.428Z,13.90
2022-08-17T11:18:02.139Z,19.05
2022-08-17T11:20:45.802Z,14.48
2022-08-17T11:23:26.230Z,14.70
2022-08-17T11:25:56.828Z,14.23
2022-08-17T11:28:36.185Z,16.35
2022-08-17T11:31:38.713Z,18.10
2022-08-17T11:34:21.757Z,25.00
2022-08-17T11:37:11.467Z,25.15
2022-08-17T11:40:25.688Z,15.77
2022-08-17T11:43:33.704Z,17.33
2022-08-17T11:46:22.866Z,15.70
2022-08-17T11:49:20.063Z,16.95
2022-08-17T11:52:01.143Z,13.02
2022-08-17T11:54:36.085Z,17.45
2022-08-17T11:57:25.555Z,14.85
2022-08-17T12:00:28.248Z,16.95
2022-08-17T12:03:27.006Z,23.95
2022-08-17T12:06:30.300Z,21.05
2022-08-17T12:09:24.803Z,24.85
2022-08-17T12:12:13.224Z,19.55
2022-08-17T12:15:09.508Z,23.73
2022-08-17T12:17:40.970Z,21.45
2022-08-17T12:20:15.696Z,15.57
2022-08-17T12:23:01.425Z,18.38
2022-08-17T12:25:53.195Z,20.13
2022-08-17T12:28:38.694Z,19.13
2022-08-17T12:31:25.074Z,16.73
2022-08-17T12:34:02.078Z,17.27
2022-08-17T12:36:32.678Z,19.98
2022-08-17T12:39:13.756Z,20.92
2022-08-17T12:41:47.380Z,17.23
2022-08-17T12:44:46.265Z,21.77
2022-08-17T12:47:22.633Z,18.42
2022-08-17T12:49:53.861Z,20.38
2022-08-17T12:52:26.263Z,16.48
2022-08-17T12:55:00.722Z,17.08
2022-08-17T12:58:04.118Z,18.40
2022-08-17T13:00:47.571Z,21.35
2022-08-17T13:03:19.424Z,16.05
2022-08-17T13:05:52.883Z,18.05
2022-08-17T13:08:29.112Z,19.08
2022-08-17T13:11:00.271Z,17.20
2022-08-17T13:13:31.454Z,15.85
2022-08-17T13:16:09.717Z,20.40
2022-08-17T13:18:40.853Z,20.88
2022-08-17T13:21:19.865Z,18.83
2022-08-17T13:24:30.664Z,18.40
2022-08-17T13:27:13.544Z,18.08
2022-08-17T13:29:51.381Z,18.67
2022-08-17T13:32:33.596Z,17.80
2022-08-17T13:35:39.536Z,18.50
2022-08-17T13:38:13.145Z,19.17
2022-08-17T13:40:53.556Z,19.30
2022-08-17T13:43:45.110Z,20.77
2022-08-17T13:46:20.437Z,22.05
2022-08-17T13:49:00.746Z,17.98
2022-08-17T13:51:42.094Z,17.88
2022-08-17T13:54:34.462Z,16.52
2022-08-17T13:57:22.667Z,16.30
2022-08-17T13:59:57.451Z,17.85
2022-08-17T14:02:28.399Z,17.77
2022-08-17T14:04:58.377Z,21.02
2022-08-17T14:07:34.027Z,21.30
2022-08-17T14:10:17.561Z,20.65
2022-08-17T14:12:45.947Z,16.73
2022-08-17T14:15:18.362Z,23.00
2022-08-17T14:17:49.241Z,15.90
2022-08-17T14:20:20.929Z,17.55
2022-08-17T14:22:54.463Z,17.05
2022-08-17T14:25:27.624Z,18.10
2022-08-17T14:27:56.287Z,20.85
2022-08-17T14:30:29.916Z,17.00
2022-08-17T14:32:59.667Z,20.20
2022-08-17T14:35:29.464Z,16.95
2022-08-17T14:37:57.697Z,13.90
2022-08-17T14:40:26.014Z,19.58
2022-08-17T14:42:56.665Z,18.77
2022-08-17T14:45:32.347Z,18.40
2022-08-17T14:48:08.327Z,20.25
2022-08-17T14:50:59.800Z,24.02
2022-08-17T14:53:27.618Z,17.67
2022-08-17T14:55:55.336Z,18.35
2022-08-17T14:58:23.895Z,21.65
2022-08-17T15:00:51.751Z,20.00
2022-08-17T15:03:19.607Z,17.38
2022-08-17T15:05:47.480Z,20.02
2022-08-17T15:08:16.830Z,20.13
2022-08-17T15:10:45.194Z,20.88
2022-08-17T15:13:22.919Z,19.33
2022-08-17T15:15:51.425Z,18.88
2022-08-17T15:18:19.185Z,17.88
2022-08-17T15:20:49.590Z,19.15
2022-08-17T15:23:20.900Z,16.20
2022-08-17T15:25:52.757Z,20.23
2022-08-17T15:28:25.285Z,22.42
2022-08-17T15:31:00.103Z,17.23
2022-08-17T15:33:31.778Z,23.83
2022-08-17T15:36:04.809Z,21.77
2022-08-17T15:38:36.988Z,20.50
2022-08-17T15:41:05.185Z,18.48
2022-08-17T15:43:33.946Z,19.30
2022-08-17T15:46:10.557Z,16.80
2022-08-17T15:48:43.898Z,18.40
2022-08-17T15:51:24.214Z,19.30
2022-08-17T15:53:56.110Z,18.17
2022-08-17T15:56:25.405Z,22.17
2022-08-17T15:58:55.313Z,18.55
2022-08-17T16:02:07.743Z,19.95
2022-08-17T16:04:26.691Z,18.70
2022-08-17T16:07:00.082Z,19.27
2022-08-17T16:09:28.438Z,23.67
2022-08-17T16:12:13.791Z,19.10
2022-08-17T16:14:41.834Z,22.67
2022-08-17T16:17:40.042Z,24.85
2022-08-17T16:19:58.547Z,22.00
2022-08-17T16:22:33.225Z,19.73
2022-08-17T16:25:09.074Z,18.65
2022-08-17T16:27:37.221Z,19.48
2022-08-17T16:30:17.360Z,22.08
2022-08-17T16:35:18.712Z,22.30
2022-08-17T16:37:47.128Z,20.13
2022-08-17T16:40:16.674Z,24.73
2022-08-17T16:42:48.542Z,24.00
2022-08-17T16:45:24.226Z,21.88
2022-08-17T16:47:52.631Z,21.33
2022-08-17T16:50:22.718Z,21.50
2022-08-17T16:53:04.323Z,21.38
2022-08-17T16:55:32.480Z,25.42
2022-08-17T16:58:02.237Z,21.80
2022-08-17T17:00:30.639Z,22.10
2022-08-17T17:03:19.193Z,22.77
2022-08-17T17:06:14.452Z,23.98
2022-08-17T17:09:05.462Z,21.02
2022-08-17T17:11:48.288Z,22.23
2022-08-17T17:14:22.968Z,21.20
2022-08-17T17:17:16.329Z,22.95
2022-08-17T17:19:51.449Z,23.05
2022-08-17T17:22:33.229Z,25.13
2022-08-17T17:25:09.988Z,24.77
2022-08-17T17:28:19.211Z,25.48
2022-08-17T17:31:24.014Z,28.05
2022-08-17T17:34:03.071Z,29.98
2022-08-17T17:36:41.698Z,24.45
2022-08-17T17:39:18.218Z,25.48
2022-08-17T17:41:54.025Z,24.65
2022-08-17T17:44:33.401Z,24.17
2022-08-17T17:47:03.019Z,27.95
2022-08-17T17:49:35.839Z,22.55
2022-08-17T17:52:25.206Z,26.63
2022-08-17T17:55:01.144Z,25.88
2022-08-17T17:57:47.476Z,25.63
2022-08-17T18:00:22.433Z,24.17
2022-08-17T18:02:51.372Z,29.70
2022-08-17T18:05:25.879Z,30.42
2022-08-17T18:08:20.293Z,22.75
2022-08-17T18:11:09.325Z,24.08
2022-08-17T18:14:05.436Z,27.17
2022-08-17T18:16:35.656Z,25.77
2022-08-17T18:19:03.875Z,23.15
2022-08-17T18:21:39.214Z,31.13
2022-08-17T18:24:08.807Z,25.45
2022-08-17T18:26:39.801Z,26.08
2022-08-17T18:29:30.247Z,24.38
2022-08-17T18:32:23.057Z,23.80
2022-08-17T18:34:56.886Z,26.42
2022-08-17T18:37:31.187Z,27.50
2022-08-17T18:40:17.524Z,33.10
2022-08-17T18:42:59.021Z,27.90
2022-08-17T18:45:50.721Z,27.10
2022-08-17T18:48:38.209Z,39.80
2022-08-17T18:51:40.779Z,30.67
2022-08-17T18:54:28.472Z,29.75
2022-08-17T18:57:00.723Z,33.25
2022-08-17T18:59:42.579Z,32.38
2022-08-17T19:02:23.250Z,32.55
2022-08-17T19:05:08.058Z,28.55
2022-08-17T19:07:45.443Z,33.40
2022-08-17T19:10:18.439Z,30.35
2022-08-17T19:13:00.669Z,31.08
2022-08-17T19:15:40.948Z,30.42
2022-08-17T19:18:21.519Z,28.80
2022-08-17T19:21:08.520Z,29.38
2022-08-17T19:24:05.979Z,33.08
2022-08-17T19:26:53.885Z,29.10
2022-08-17T19:29:57.940Z,31.55
2022-08-17T19:32:34.423Z,32.13
2022-08-17T19:35:04.718Z,32.75
2022-08-17T19:38:04.511Z,33.05
2022-08-17T19:40:53.514Z,32.45
2022-08-17T19:43:48.087Z,40.40
2022-08-17T19:46:49.999Z,33.00
2022-08-17T19:49:41.190Z,33.15
2022-08-17T19:55:07.710Z,32.47
2022-08-17T19:58:21.257Z,31.13
2022-08-17T20:00:56.159Z,30.02
2022-08-17T20:03:47.596Z,32.60
2022-08-17T20:06:26.822Z,35.20
2022-08-17T20:09:14.767Z,31.30
2022-08-17T20:11:48.697Z,34.95
2022-08-17T20:14:22.392Z,30.15
2022-08-17T20:16:53.669Z,32.67
2022-08-17T20:19:28.709Z,34.17
2022-08-17T20:22:01.759Z,30.48
2022-08-17T20:24:47.637Z,29.15
2022-08-17T20:27:20.762Z,33.75
2022-08-17T20:30:11.307Z,33.55
2022-08-17T20:33:32.044Z,34.30
2022-08-17T20:36:02.464Z,31.15
2022-08-17T20:38:59.659Z,35.10
2022-08-17T20:41:30.169Z,39.28
2022-08-17T20:46:36.820Z,37.45
2022-08-17T20:49:47.955Z,32.97
2022-08-17T20:52:42.513Z,33.70
2022-08-17T20:55:36.047Z,34.00
2022-08-17T20:58:23.485Z,36.60
2022-08-17T21:00:57.158Z,32.28
2022-08-17T21:03:40.018Z,36.30
2022-08-17T21:06:21.323Z,35.10
2022-08-17T21:09:00.492Z,33.85
2022-08-17T21:12:02.890Z,34.38
2022-08-17T21:14:39.420Z,32.47
2022-08-17T21:17:22.802Z,31.20
2022-08-17T21:20:17.639Z,32.38
2022-08-17T21:22:57.955Z,33.92
2022-08-17T21:25:37.402Z,28.55
2022-08-17T21:28:10.799Z,29.10
2022-08-17T21:31:09.960Z,34.25
2022-08-17T21:33:39.715Z,29.85
2022-08-17T21:36:13.331Z,30.25
2022-08-17T21:38:53.417Z,28.92
2022-08-17T21:41:30.170Z,31.80
2022-08-17T21:44:22.674Z,31.30
2022-08-17T21:46:52.889Z,29.70
2022-08-17T21:49:26.647Z,30.60
2022-08-17T21:51:56.428Z,36.60
2022-08-17T21:54:40.649Z,29.65
2022-08-17T21:57:20.502Z,30.38
2022-08-17T21:59:57.790Z,31.17
2022-08-17T22:02:34.054Z,30.00
2022-08-17T22:05:09.316Z,30.25
2022-08-17T22:07:58.966Z,32.35
2022-08-17T22:10:45.006Z,31.65
2022-08-17T22:13:18.415Z,31.58
2022-08-17T22:16:27.722Z,33.35
2022-08-17T22:19:01.179Z,34.60
2022-08-17T22:22:02.617Z,30.65
2022-08-17T22:24:33.654Z,32.78
2022-08-17T22:27:11.845Z,30.38
2022-08-17T22:29:58.280Z,32.78
2022-08-17T22:32:46.801Z,33.20
2022-08-17T22:35:30.570Z,34.83
2022-08-17T22:38:18.691Z,33.78
2022-08-17T22:41:18.625Z,32.72
2022-08-17T22:43:47.105Z,30.17
2022-08-17T22:46:15.636Z,32.28
2022-08-17T22:48:53.834Z,33.00
2022-08-17T22:51:24.117Z,28.95
2022-08-17T22:54:17.182Z,32.55
2022-08-17T22:57:15.171Z,35.88
2022-08-17T22:59:56.047Z,31.90
2022-08-17T23:02:23.979Z,31.90
2022-08-17T23:05:17.036Z,32.83
2022-08-17T23:07:54.721Z,35.45
2022-08-17T23:10:22.612Z,35.15
2022-08-17T23:13:15.495Z,33.30
2022-08-17T23:15:43.883Z,37.78
2022-08-17T23:18:11.899Z,36.25
2022-08-17T23:20:41.939Z,34.90
2022-08-17T23:23:14.202Z,33.67
2022-08-17T23:25:46.264Z,33.40
2022-08-17T23:28:14.305Z,34.03
2022-08-17T23:30:44.421Z,38.97
2022-08-17T23:33:35.641Z,33.05
2022-08-17T23:36:06.464Z,32.05
2022-08-17T23:38:34.634Z,35.35
2022-08-17T23:41:28.669Z,35.75
2022-08-17T23:44:01.379Z,34.28
2022-08-17T23:46:29.439Z,33.17
2022-08-17T23:48:59.759Z,37.63
2022-08-17T23:51:31.763Z,40.13
2022-08-17T23:54:08.173Z,36.63
2022-08-17T23:56:44.818Z,32.13
2022-08-17T23:59:14.742Z,33.72
